Aérodrome :







RETROUVEZ-NOUS SUR...

 
LOGIN :

S'inscrire | Disclaimer

   EN    FR    IT 

 









Légende :    VFR   VFR Marginal   IFR   IFR Intensif   IFR Très Intensif
Visi : 
Plafond : 
>= 8 km
>= 3000ft
5 à 8 km
1000 à 3000 ft
1500m à 5 km
500 à 1000 ft
800 à 1500m
200 à 500 ft
< 800m
< 200 ft
Symboles :   Orages  Brouillard  Fortes neiges  Fortes précipitations  Vent > 20 kt






- Altitude de l'aérodrome : 228 ft


KFSO - Franklin County State

DERNIER METAR :
  • 210315Z AUTO 00000KT 10SM CLR M18/M21 A3050 RMK AO2 T11811209

METARs EXPIRÉS :
  • 210256Z AUTO 00000KT 10SM CLR M18/M21 A3050 RMK AO2 T11781206
  • 210235Z AUTO 00000KT 10SM CLR M17/M20 A3050 RMK AO2 T11751205
  • 210216Z AUTO 00000KT 10SM CLR M18/M20 A3050 RMK AO2 T11761204
  • 210155Z AUTO 00000KT 10SM CLR M17/M21 A3050 RMK AO2 T11681207
  • 210136Z AUTO 14003KT 10SM CLR M16/M20 A3050 RMK AO2 T11651200
  • 210115Z AUTO 00000KT 10SM CLR M17/M21 A3049 RMK AO2 T11711206
  • 210055Z AUTO 00000KT 10SM CLR M16/M20 A3049 RMK AO2 T11651201
  • 210036Z AUTO 00000KT 10SM CLR M16/M20 A3049 RMK AO2 T11601201

TAF N/A



MET'MAP, la Météo Aéronautique d'un coup d'oeil ! - Copyright ORBIFLY Décembre 2007 - Disclaimer

ORBIFLY MET'MAP TEAM :

Programmation & Développement : Alexandra Zaïnal
Sur une idée originale de : Baudouin d'Aumeries
Assistance à la programmation : Marc-Olivier Méhu
Soutien technique & logistique : Manuel Goepfert

Contact : metmap@orbifly.com




SOURCES & CREDITS :

   NOAA